Nearby METAR Reports

 

KOXC - Oxford/Waterbury, Connecticut, USA
Distance from station: SE 8mi, 12km
Updated: Sat, 22-Nov-2014 9:52am EST
Partly cloudy
Partly cloudy
 Wind from W
Wind: W 6 mph , 9 km/h
Temperature: 30°F , -1°C
Wind Chill: 24°F , -4°C
Dew Point: 10°F , -12°C
Humidity: 43%
Barometer: 30.39 inHg , 1029.1 hPa
Clouds: Partly cloudy
Visibility: 10 miles , 16 km
Cloud details: Partly cloudy 25000 ft
2014/11/22 14:52 KOXC 221452Z 26005KT 10SM SCT250 M01/M12 A3039
KDXR - Danbury, Connecticut, USA
Distance from station: SW 19mi, 30km
Updated: Sat, 22-Nov-2014 9:53am EST
Clear
Clear
 Wind from SW
Wind: SW 13 mph , 20 km/h, Gust: 18 mph , 30 km/h
Temperature: 30°F , -1°C
Wind Chill: 20°F , -7°C
Dew Point: 12°F , -11°C
Humidity: 47%
Barometer: 30.42 inHg , 1030.1 hPa
Clouds: Clear
Visibility: 10 miles , 16 km
2014/11/22 14:53 KDXR 221453Z 23011G16KT 10SM CLR M01/M11 A3042 RMK AO2 SLP306 T10061111 58012
 
KMMK - Meriden, Connecticut, USA
Distance from station: E 20mi, 33km
Updated: Sat, 22-Nov-2014 9:53am EST
Clear
Clear
 Wind from SW
Wind: SW 6 mph , 9 km/h, Gust: 18 mph , 30 km/h
Temperature: 34°F , 1°C
Wind Chill: 29°F , -2°C
Dew Point: 10°F , -12°C
Humidity: 38%
Barometer: 30.41 inHg , 1029.8 hPa
Clouds: Clear
Visibility: 10 miles , 16 km
2014/11/22 14:53 KMMK 221453Z AUTO 22005G16KT 10SM CLR 01/M12 A3041 RMK AO2 SLP300 T00061122 58018 TSNO
KBDR - Bridgeport, Connecticut, USA
Distance from station: S 27mi, 44km
Updated: Sat, 22-Nov-2014 9:52am EST
Clear
Clear
 Wind from WSW
Wind: WSW 14 mph , 22 km/h, Gust: 22 mph , 35 km/h
Temperature: 36°F , 2°C
Wind Chill: 27°F , -3°C
Dew Point: 16°F , -9°C
Humidity: 44%
Barometer: 30.44 inHg , 1030.8 hPa
Clouds: Clear
Visibility: 10 miles , 16 km
2014/11/22 14:52 KBDR 221452Z 25012G19KT 10SM CLR 02/M09 A3044 RMK AO2 SLP307 T00171089 58013
 
KHVN - New Haven/Tweed, Connecticut, USA
Distance from station: SE 27mi, 44km
Updated: Sat, 22-Nov-2014 9:53am EST
Partly cloudy
Partly cloudy
 Wind from SW
Wind: SW 10 mph , 17 km/h
Temperature: 37°F , 3°C
Wind Chill: 30°F , -1°C
Dew Point: 12°F , -11°C
Humidity: 35%
Barometer: 30.43 inHg , 1030.5 hPa
Clouds: Partly cloudy
Visibility: 10 miles , 16 km
Cloud details: Partly cloudy 25000 ft
2014/11/22 14:53 KHVN 221453Z 23009KT 10SM SCT250 03/M11 A3043 RMK AO2 SLP303 T00331106 58014
KHFD - Hartford/Brainar, Connecticut, USA
Distance from station: ENE 32mi, 52km
Updated: Sat, 22-Nov-2014 9:53am EST
Clear
Clear
 Wind from S
Wind: S 10 mph , 17 km/h
Temperature: 34°F , 1°C
Wind Chill: 26°F , -3°C
Dew Point: 12°F , -11°C
Humidity: 41%
Barometer: 30.41 inHg , 1029.8 hPa
Clouds: Clear
Visibility: 10 miles , 16 km
2014/11/22 14:53 KHFD 221453Z 19009KT 10SM CLR 01/M11 A3041 RMK AO2 SLP296 T00111111 58016
 
KPOU - Poughkeepsie, New York, USA
Distance from station: W 35mi, 56km
Updated: Sat, 22-Nov-2014 9:53am EST
Clear
Clear
 Wind from SW
Wind: SW 10 mph , 17 km/h
Temperature: 30°F , -1°C
Wind Chill: 21°F , -6°C
Dew Point: 10°F , -12°C
Humidity: 43%
Barometer: 30.41 inHg , 1029.8 hPa
Clouds: Clear
Visibility: 10 miles , 16 km
2014/11/22 14:53 KPOU 221453Z AUTO 23009KT 10SM CLR M01/M12 A3041 RMK AO2 SLP296 T10061117 58017 TSNO
KBDL - Windsor Locks, Connecticut, USA
Distance from station: NE 38mi, 62km
Updated: Sat, 22-Nov-2014 9:51am EST
Mostly cloudy
Mostly cloudy
 Wind from SSW
Wind: SSW 12 mph , 19 km/h
Temperature: 34°F , 1°C
Wind Chill: 25°F , -4°C
Dew Point: 12°F , -11°C
Humidity: 41%
Barometer: 30.38 inHg , 1028.8 hPa
Clouds: Mostly cloudy
Visibility: 10 miles , 16 km
Cloud details: Few Clouds 12000 ft
Mostly cloudy 15000 ft
Mostly cloudy 20000 ft
Mostly cloudy 25000 ft
2014/11/22 14:51 KBDL 221451Z 21010KT 10SM FEW120 BKN150 BKN200 BKN250 01/M11 A3038 RMK AO2 SLP289 T00111111 58015
 
KSNC - Chester, Connecticut, USA
Distance from station: ESE 39mi, 63km
Updated: Sat, 22-Nov-2014 9:55am EST
Clear
Clear
 Wind from SW
Wind: SW 9 mph , 15 km/h, Gust: 18 mph , 30 km/h
Temperature: 34°F , 1°C
Wind Chill: 27°F , -3°C
Dew Point: 18°F , -8°C
Humidity: 51%
Barometer: 30.41 inHg , 1029.8 hPa
Clouds: Clear
Visibility: 10 miles , 16 km
2014/11/22 14:55 KSNC 221455Z AUTO 22008G16KT 360V010 10SM CLR 01/M08 A3041 RMK AO2
KHPN - White Plains, New York, USA
Distance from station: SW 42mi, 67km
Updated: Sat, 22-Nov-2014 9:56am EST
Clear
Clear
 Wind from varies
Wind: varies 3 mph , 6 km/h
Temperature: 34°F , 1°C
Dew Point: 10°F , -12°C
Humidity: 38%
Barometer: 30.40 inHg , 1029.5 hPa
Clouds: Clear
Visibility: 10 miles , 16 km
2014/11/22 14:56 KHPN 221456Z VRB03KT 10SM CLR 01/M12 A3040 RMK AO2 SLP306 T00061117 58013
 
KSWF - Newburgh/Stewart, New York, USA
Distance from station: W 45mi, 72km
Updated: Sat, 22-Nov-2014 9:45am EST
Partly cloudy
Partly cloudy
 Wind from WSW
Wind: WSW 14 mph , 22 km/h, Gust: 21 mph , 33 km/h
Temperature: 28°F , -2°C
Wind Chill: 17°F , -8°C
Dew Point: 16°F , -9°C
Humidity: 59%
Barometer: 30.40 inHg , 1029.5 hPa
Clouds: Partly cloudy
Visibility: 20 miles , 32 km
Cloud details: Partly cloudy 10000 ft
2014/11/22 14:45 KSWF 221445Z 25012G18KT 20SM SCT100 M02/M09 A3040
KBAF - Westfield, Massachusetts, USA
Distance from station: NNE 50mi, 80km
Updated: Sat, 22-Nov-2014 9:53am EST
Clear
Clear
 Wind from S
Wind: S 10 mph , 17 km/h
Temperature: 30°F , -1°C
Wind Chill: 21°F , -6°C
Dew Point: 12°F , -11°C
Humidity: 47%
Barometer: 30.36 inHg , 1028.1 hPa
Clouds: Clear
Visibility: 10 miles , 16 km
2014/11/22 14:53 KBAF 221453Z 19009KT 10SM CLR M01/M11 A3036 RMK AO2 SLP290 T10111111 58017